sensor_id;sensor_type;location;lat;lon;timestamp;P1;durP1;ratioP1;P2;durP2;ratioP2
25191;SDS011;13143;50.924;5.320;2023-09-18T00:00:03;11.95;;;7.15;;
25191;SDS011;13143;50.924;5.320;2023-09-18T00:02:33;14.50;;;8.27;;
25191;SDS011;13143;50.924;5.320;2023-09-18T00:04:59;13.43;;;8.15;;
25191;SDS011;13143;50.924;5.320;2023-09-18T00:07:25;16.75;;;8.05;;
25191;SDS011;13143;50.924;5.320;2023-09-18T00:09:51;16.38;;;7.78;;
25191;SDS011;13143;50.924;5.320;2023-09-18T00:12:17;9.15;;;7.05;;
25191;SDS011;13143;50.924;5.320;2023-09-18T00:14:43;12.90;;;7.38;;
25191;SDS011;13143;50.924;5.320;2023-09-18T00:17:15;11.50;;;6.97;;
25191;SDS011;13143;50.924;5.320;2023-09-18T00:19:44;15.48;;;8.15;;
25191;SDS011;13143;50.924;5.320;2023-09-18T00:22:10;11.05;;;7.72;;
25191;SDS011;13143;50.924;5.320;2023-09-18T00:24:36;18.45;;;8.55;;
25191;SDS011;13143;50.924;5.320;2023-09-18T00:27:02;14.82;;;7.72;;
25191;SDS011;13143;50.924;5.320;2023-09-18T00:29:28;13.50;;;7.90;;
25191;SDS011;13143;50.924;5.320;2023-09-18T00:31:54;14.80;;;7.90;;
25191;SDS011;13143;50.924;5.320;2023-09-18T00:34:19;12.63;;;7.97;;
25191;SDS011;13143;50.924;5.320;2023-09-18T00:36:45;13.30;;;7.82;;
25191;SDS011;13143;50.924;5.320;2023-09-18T00:39:11;17.60;;;8.27;;
25191;SDS011;13143;50.924;5.320;2023-09-18T00:41:37;15.70;;;7.30;;
25191;SDS011;13143;50.924;5.320;2023-09-18T00:44:03;15.88;;;8.80;;
25191;SDS011;13143;50.924;5.320;2023-09-18T00:46:30;12.25;;;7.00;;
25191;SDS011;13143;50.924;5.320;2023-09-18T00:48:56;18.40;;;7.45;;
25191;SDS011;13143;50.924;5.320;2023-09-18T00:51:22;11.95;;;7.03;;
25191;SDS011;13143;50.924;5.320;2023-09-18T00:53:47;14.63;;;7.05;;
25191;SDS011;13143;50.924;5.320;2023-09-18T00:56:14;14.52;;;7.70;;
25191;SDS011;13143;50.924;5.320;2023-09-18T00:58:41;13.35;;;7.32;;
25191;SDS011;13143;50.924;5.320;2023-09-18T01:01:07;14.82;;;7.68;;
25191;SDS011;13143;50.924;5.320;2023-09-18T01:03:33;18.35;;;8.02;;
25191;SDS011;13143;50.924;5.320;2023-09-18T01:05:59;12.27;;;7.47;;
25191;SDS011;13143;50.924;5.320;2023-09-18T01:08:25;12.15;;;7.70;;
25191;SDS011;13143;50.924;5.320;2023-09-18T01:13:19;12.38;;;7.25;;
25191;SDS011;13143;50.924;5.320;2023-09-18T01:16:03;13.23;;;7.97;;
25191;SDS011;13143;50.924;5.320;2023-09-18T01:18:51;16.02;;;7.72;;
25191;SDS011;13143;50.924;5.320;2023-09-18T01:21:20;16.73;;;7.40;;
25191;SDS011;13143;50.924;5.320;2023-09-18T01:23:46;15.50;;;7.22;;
25191;SDS011;13143;50.924;5.320;2023-09-18T01:26:12;16.20;;;8.02;;
25191;SDS011;13143;50.924;5.320;2023-09-18T01:28:37;18.67;;;8.05;;
25191;SDS011;13143;50.924;5.320;2023-09-18T01:31:03;19.50;;;7.20;;
25191;SDS011;13143;50.924;5.320;2023-09-18T01:33:29;17.55;;;7.45;;
25191;SDS011;13143;50.924;5.320;2023-09-18T01:35:57;14.30;;;6.95;;
25191;SDS011;13143;50.924;5.320;2023-09-18T01:38:25;14.50;;;6.82;;
25191;SDS011;13143;50.924;5.320;2023-09-18T01:40:52;15.65;;;7.60;;
25191;SDS011;13143;50.924;5.320;2023-09-18T01:43:18;18.58;;;7.30;;
25191;SDS011;13143;50.924;5.320;2023-09-18T01:45:44;19.67;;;6.90;;
25191;SDS011;13143;50.924;5.320;2023-09-18T01:48:10;19.38;;;7.40;;
25191;SDS011;13143;50.924;5.320;2023-09-18T01:50:36;14.55;;;7.60;;
25191;SDS011;13143;50.924;5.320;2023-09-18T01:53:05;20.80;;;7.10;;
25191;SDS011;13143;50.924;5.320;2023-09-18T01:55:31;27.23;;;7.65;;
25191;SDS011;13143;50.924;5.320;2023-09-18T01:57:57;21.35;;;7.32;;
25191;SDS011;13143;50.924;5.320;2023-09-18T02:00:23;21.88;;;7.72;;
25191;SDS011;13143;50.924;5.320;2023-09-18T02:02:49;18.70;;;7.07;;
25191;SDS011;13143;50.924;5.320;2023-09-18T02:05:15;15.80;;;6.75;;
25191;SDS011;13143;50.924;5.320;2023-09-18T02:07:41;24.63;;;7.10;;
25191;SDS011;13143;50.924;5.320;2023-09-18T02:10:07;23.38;;;6.75;;
25191;SDS011;13143;50.924;5.320;2023-09-18T02:12:33;18.70;;;6.10;;
25191;SDS011;13143;50.924;5.320;2023-09-18T02:14:58;17.10;;;5.72;;
25191;SDS011;13143;50.924;5.320;2023-09-18T02:17:29;12.35;;;5.40;;
25191;SDS011;13143;50.924;5.320;2023-09-18T02:19:55;14.82;;;5.60;;
25191;SDS011;13143;50.924;5.320;2023-09-18T02:22:21;14.75;;;5.32;;
25191;SDS011;13143;50.924;5.320;2023-09-18T02:24:46;17.23;;;5.50;;
25191;SDS011;13143;50.924;5.320;2023-09-18T02:27:12;10.77;;;5.00;;
25191;SDS011;13143;50.924;5.320;2023-09-18T02:29:41;9.40;;;4.07;;
25191;SDS011;13143;50.924;5.320;2023-09-18T02:32:07;12.77;;;4.20;;
25191;SDS011;13143;50.924;5.320;2023-09-18T02:34:32;12.68;;;4.25;;
25191;SDS011;13143;50.924;5.320;2023-09-18T02:36:58;11.13;;;4.15;;
25191;SDS011;13143;50.924;5.320;2023-09-18T02:39:26;9.40;;;4.03;;
25191;SDS011;13143;50.924;5.320;2023-09-18T02:41:52;13.63;;;4.03;;
25191;SDS011;13143;50.924;5.320;2023-09-18T02:44:18;10.27;;;3.80;;
25191;SDS011;13143;50.924;5.320;2023-09-18T02:46:43;10.07;;;3.63;;
25191;SDS011;13143;50.924;5.320;2023-09-18T02:49:09;8.80;;;3.70;;
25191;SDS011;13143;50.924;5.320;2023-09-18T02:51:35;9.20;;;3.50;;
25191;SDS011;13143;50.924;5.320;2023-09-18T02:54:01;9.25;;;3.13;;
25191;SDS011;13143;50.924;5.320;2023-09-18T02:56:27;8.50;;;4.30;;
25191;SDS011;13143;50.924;5.320;2023-09-18T02:58:53;10.70;;;3.95;;
25191;SDS011;13143;50.924;5.320;2023-09-18T03:01:19;15.18;;;4.13;;
25191;SDS011;13143;50.924;5.320;2023-09-18T03:03:44;9.80;;;4.00;;
25191;SDS011;13143;50.924;5.320;2023-09-18T03:06:10;8.63;;;3.72;;
25191;SDS011;13143;50.924;5.320;2023-09-18T03:08:36;9.23;;;4.18;;
25191;SDS011;13143;50.924;5.320;2023-09-18T03:11:01;12.75;;;4.05;;
25191;SDS011;13143;50.924;5.320;2023-09-18T03:13:28;12.30;;;4.00;;
25191;SDS011;13143;50.924;5.320;2023-09-18T03:15:57;9.20;;;3.40;;
25191;SDS011;13143;50.924;5.320;2023-09-18T03:18:22;9.20;;;3.47;;
25191;SDS011;13143;50.924;5.320;2023-09-18T03:20:48;10.60;;;3.45;;
25191;SDS011;13143;50.924;5.320;2023-09-18T03:23:14;8.45;;;3.60;;
25191;SDS011;13143;50.924;5.320;2023-09-18T03:25:40;8.85;;;3.35;;
25191;SDS011;13143;50.924;5.320;2023-09-18T03:28:05;8.65;;;3.45;;
25191;SDS011;13143;50.924;5.320;2023-09-18T03:30:31;10.80;;;3.65;;
25191;SDS011;13143;50.924;5.320;2023-09-18T03:32:57;10.57;;;3.45;;
25191;SDS011;13143;50.924;5.320;2023-09-18T03:35:23;7.50;;;3.35;;
25191;SDS011;13143;50.924;5.320;2023-09-18T03:37:52;7.90;;;3.50;;
25191;SDS011;13143;50.924;5.320;2023-09-18T03:40:19;13.15;;;3.90;;
25191;SDS011;13143;50.924;5.320;2023-09-18T03:42:45;12.48;;;3.53;;
25191;SDS011;13143;50.924;5.320;2023-09-18T03:45:12;7.45;;;3.83;;
25191;SDS011;13143;50.924;5.320;2023-09-18T03:47:38;8.20;;;3.67;;
25191;SDS011;13143;50.924;5.320;2023-09-18T03:50:08;9.20;;;4.00;;
25191;SDS011;13143;50.924;5.320;2023-09-18T03:52:36;10.50;;;4.20;;
25191;SDS011;13143;50.924;5.320;2023-09-18T03:55:03;7.65;;;3.63;;
25191;SDS011;13143;50.924;5.320;2023-09-18T03:57:29;9.05;;;3.28;;
25191;SDS011;13143;50.924;5.320;2023-09-18T03:59:55;13.30;;;3.65;;
25191;SDS011;13143;50.924;5.320;2023-09-18T04:02:21;9.60;;;3.40;;
25191;SDS011;13143;50.924;5.320;2023-09-18T04:04:49;7.03;;;3.42;;
25191;SDS011;13143;50.924;5.320;2023-09-18T04:07:14;7.22;;;2.92;;
25191;SDS011;13143;50.924;5.320;2023-09-18T04:09:41;8.85;;;3.63;;
25191;SDS011;13143;50.924;5.320;2023-09-18T04:12:07;7.20;;;3.53;;
25191;SDS011;13143;50.924;5.320;2023-09-18T04:14:33;6.03;;;2.97;;
25191;SDS011;13143;50.924;5.320;2023-09-18T04:16:59;9.38;;;3.42;;
25191;SDS011;13143;50.924;5.320;2023-09-18T04:19:28;7.43;;;3.25;;
25191;SDS011;13143;50.924;5.320;2023-09-18T04:21:54;9.80;;;3.25;;
25191;SDS011;13143;50.924;5.320;2023-09-18T04:24:20;12.73;;;3.63;;
25191;SDS011;13143;50.924;5.320;2023-09-18T04:26:46;8.23;;;3.35;;
25191;SDS011;13143;50.924;5.320;2023-09-18T04:29:12;8.73;;;3.28;;
25191;SDS011;13143;50.924;5.320;2023-09-18T04:31:37;11.43;;;3.60;;
25191;SDS011;13143;50.924;5.320;2023-09-18T04:34:03;10.93;;;3.50;;
25191;SDS011;13143;50.924;5.320;2023-09-18T04:36:29;7.70;;;3.72;;
25191;SDS011;13143;50.924;5.320;2023-09-18T04:38:56;8.68;;;4.10;;
25191;SDS011;13143;50.924;5.320;2023-09-18T04:41:22;6.35;;;3.28;;
25191;SDS011;13143;50.924;5.320;2023-09-18T04:43:48;7.78;;;2.92;;
25191;SDS011;13143;50.924;5.320;2023-09-18T04:46:14;7.57;;;3.03;;
25191;SDS011;13143;50.924;5.320;2023-09-18T04:48:39;7.40;;;2.80;;
25191;SDS011;13143;50.924;5.320;2023-09-18T04:51:05;4.47;;;2.70;;
25191;SDS011;13143;50.924;5.320;2023-09-18T04:53:31;9.93;;;2.90;;
25191;SDS011;13143;50.924;5.320;2023-09-18T04:55:57;7.50;;;3.15;;
25191;SDS011;13143;50.924;5.320;2023-09-18T04:58:23;7.55;;;3.00;;
25191;SDS011;13143;50.924;5.320;2023-09-18T05:00:53;7.07;;;2.85;;
25191;SDS011;13143;50.924;5.320;2023-09-18T05:03:22;7.78;;;3.25;;
25191;SDS011;13143;50.924;5.320;2023-09-18T05:05:48;9.52;;;3.10;;
25191;SDS011;13143;50.924;5.320;2023-09-18T05:08:13;7.78;;;3.25;;
25191;SDS011;13143;50.924;5.320;2023-09-18T05:10:39;7.95;;;3.10;;
25191;SDS011;13143;50.924;5.320;2023-09-18T05:13:05;5.68;;;2.80;;
25191;SDS011;13143;50.924;5.320;2023-09-18T05:15:32;7.20;;;2.85;;
25191;SDS011;13143;50.924;5.320;2023-09-18T05:17:58;10.48;;;3.00;;
25191;SDS011;13143;50.924;5.320;2023-09-18T05:20:26;6.68;;;2.80;;
25191;SDS011;13143;50.924;5.320;2023-09-18T05:22:53;9.15;;;2.92;;
25191;SDS011;13143;50.924;5.320;2023-09-18T05:25:21;5.35;;;2.90;;
25191;SDS011;13143;50.924;5.320;2023-09-18T05:27:48;7.93;;;2.70;;
25191;SDS011;13143;50.924;5.320;2023-09-18T05:30:23;7.60;;;3.00;;
25191;SDS011;13143;50.924;5.320;2023-09-18T05:32:59;5.45;;;2.70;;
25191;SDS011;13143;50.924;5.320;2023-09-18T05:37:59;6.38;;;2.42;;
25191;SDS011;13143;50.924;5.320;2023-09-18T05:40:25;7.47;;;3.03;;
25191;SDS011;13143;50.924;5.320;2023-09-18T05:42:54;5.90;;;2.28;;
25191;SDS011;13143;50.924;5.320;2023-09-18T05:45:21;6.78;;;2.80;;
25191;SDS011;13143;50.924;5.320;2023-09-18T05:47:47;5.72;;;2.55;;
25191;SDS011;13143;50.924;5.320;2023-09-18T05:50:14;3.75;;;2.25;;
25191;SDS011;13143;50.924;5.320;2023-09-18T05:52:48;7.28;;;2.65;;
25191;SDS011;13143;50.924;5.320;2023-09-18T05:55:14;6.73;;;3.10;;
25191;SDS011;13143;50.924;5.320;2023-09-18T05:57:40;7.80;;;2.95;;
25191;SDS011;13143;50.924;5.320;2023-09-18T06:00:07;5.97;;;2.50;;
25191;SDS011;13143;50.924;5.320;2023-09-18T06:02:33;8.02;;;2.67;;
25191;SDS011;13143;50.924;5.320;2023-09-18T06:04:59;4.50;;;2.28;;
25191;SDS011;13143;50.924;5.320;2023-09-18T06:07:29;6.38;;;2.42;;
25191;SDS011;13143;50.924;5.320;2023-09-18T06:09:58;8.32;;;2.33;;
25191;SDS011;13143;50.924;5.320;2023-09-18T06:12:24;5.82;;;2.10;;
25191;SDS011;13143;50.924;5.320;2023-09-18T06:14:51;5.35;;;2.20;;
25191;SDS011;13143;50.924;5.320;2023-09-18T06:17:17;6.35;;;2.20;;
25191;SDS011;13143;50.924;5.320;2023-09-18T06:19:43;5.35;;;2.22;;
25191;SDS011;13143;50.924;5.320;2023-09-18T06:22:10;9.98;;;2.60;;
25191;SDS011;13143;50.924;5.320;2023-09-18T06:24:36;5.45;;;2.10;;
25191;SDS011;13143;50.924;5.320;2023-09-18T06:27:03;4.93;;;2.35;;
25191;SDS011;13143;50.924;5.320;2023-09-18T06:29:29;7.72;;;2.92;;
25191;SDS011;13143;50.924;5.320;2023-09-18T06:31:56;5.22;;;2.50;;
25191;SDS011;13143;50.924;5.320;2023-09-18T06:34:22;7.82;;;2.38;;
25191;SDS011;13143;50.924;5.320;2023-09-18T06:36:47;7.28;;;2.50;;
25191;SDS011;13143;50.924;5.320;2023-09-18T06:39:17;7.63;;;2.42;;
25191;SDS011;13143;50.924;5.320;2023-09-18T06:41:45;6.72;;;2.30;;
25191;SDS011;13143;50.924;5.320;2023-09-18T06:44:10;12.68;;;2.80;;
25191;SDS011;13143;50.924;5.320;2023-09-18T06:46:36;4.63;;;2.20;;
25191;SDS011;13143;50.924;5.320;2023-09-18T06:49:02;5.43;;;2.22;;
25191;SDS011;13143;50.924;5.320;2023-09-18T06:51:28;4.10;;;1.95;;
25191;SDS011;13143;50.924;5.320;2023-09-18T06:53:54;5.88;;;2.40;;
25191;SDS011;13143;50.924;5.320;2023-09-18T06:56:22;6.50;;;2.45;;
25191;SDS011;13143;50.924;5.320;2023-09-18T06:58:48;7.60;;;2.53;;
25191;SDS011;13143;50.924;5.320;2023-09-18T07:01:18;6.80;;;2.17;;
25191;SDS011;13143;50.924;5.320;2023-09-18T07:03:47;6.72;;;2.00;;
25191;SDS011;13143;50.924;5.320;2023-09-18T07:06:13;5.25;;;2.22;;
25191;SDS011;13143;50.924;5.320;2023-09-18T07:08:45;2.67;;;2.25;;
25191;SDS011;13143;50.924;5.320;2023-09-18T07:11:14;5.15;;;2.22;;
25191;SDS011;13143;50.924;5.320;2023-09-18T07:13:41;5.60;;;2.13;;
25191;SDS011;13143;50.924;5.320;2023-09-18T07:16:08;5.43;;;2.30;;
25191;SDS011;13143;50.924;5.320;2023-09-18T07:18:34;5.63;;;2.15;;
25191;SDS011;13143;50.924;5.320;2023-09-18T07:21:00;5.60;;;1.83;;
25191;SDS011;13143;50.924;5.320;2023-09-18T07:23:26;5.97;;;1.98;;
25191;SDS011;13143;50.924;5.320;2023-09-18T07:25:52;5.40;;;2.00;;
25191;SDS011;13143;50.924;5.320;2023-09-18T07:28:18;4.68;;;1.83;;
25191;SDS011;13143;50.924;5.320;2023-09-18T07:30:45;5.30;;;2.05;;
25191;SDS011;13143;50.924;5.320;2023-09-18T07:33:14;6.70;;;2.13;;
25191;SDS011;13143;50.924;5.320;2023-09-18T07:35:45;4.15;;;2.15;;
25191;SDS011;13143;50.924;5.320;2023-09-18T07:38:17;9.38;;;2.17;;
25191;SDS011;13143;50.924;5.320;2023-09-18T07:40:44;7.68;;;2.25;;
25191;SDS011;13143;50.924;5.320;2023-09-18T07:43:11;5.60;;;2.03;;
25191;SDS011;13143;50.924;5.320;2023-09-18T07:45:40;6.97;;;2.50;;
25191;SDS011;13143;50.924;5.320;2023-09-18T07:48:06;3.38;;;2.10;;
25191;SDS011;13143;50.924;5.320;2023-09-18T07:50:32;8.05;;;2.35;;
25191;SDS011;13143;50.924;5.320;2023-09-18T07:52:59;4.78;;;2.47;;
25191;SDS011;13143;50.924;5.320;2023-09-18T07:55:25;6.00;;;2.30;;
25191;SDS011;13143;50.924;5.320;2023-09-18T07:57:51;7.50;;;2.35;;
25191;SDS011;13143;50.924;5.320;2023-09-18T08:00:17;6.95;;;2.10;;
25191;SDS011;13143;50.924;5.320;2023-09-18T08:02:43;6.60;;;2.30;;
25191;SDS011;13143;50.924;5.320;2023-09-18T08:05:09;8.15;;;2.17;;
25191;SDS011;13143;50.924;5.320;2023-09-18T08:07:36;4.35;;;2.17;;
25191;SDS011;13143;50.924;5.320;2023-09-18T08:10:04;7.70;;;2.50;;
25191;SDS011;13143;50.924;5.320;2023-09-18T08:12:33;6.10;;;2.45;;
25191;SDS011;13143;50.924;5.320;2023-09-18T08:15:00;4.88;;;2.20;;
25191;SDS011;13143;50.924;5.320;2023-09-18T08:17:26;6.75;;;2.25;;
25191;SDS011;13143;50.924;5.320;2023-09-18T08:19:52;8.35;;;2.33;;
25191;SDS011;13143;50.924;5.320;2023-09-18T08:22:18;4.78;;;2.30;;
25191;SDS011;13143;50.924;5.320;2023-09-18T08:24:46;3.88;;;2.22;;
25191;SDS011;13143;50.924;5.320;2023-09-18T08:27:14;6.80;;;2.55;;
25191;SDS011;13143;50.924;5.320;2023-09-18T08:29:43;7.55;;;2.30;;
25191;SDS011;13143;50.924;5.320;2023-09-18T08:32:10;7.18;;;2.13;;
25191;SDS011;13143;50.924;5.320;2023-09-18T08:34:36;7.93;;;2.45;;
25191;SDS011;13143;50.924;5.320;2023-09-18T08:37:02;5.53;;;2.10;;
25191;SDS011;13143;50.924;5.320;2023-09-18T08:39:28;5.97;;;2.20;;
25191;SDS011;13143;50.924;5.320;2023-09-18T08:41:56;5.30;;;2.40;;
25191;SDS011;13143;50.924;5.320;2023-09-18T08:44:23;7.10;;;2.47;;
25191;SDS011;13143;50.924;5.320;2023-09-18T08:46:53;4.15;;;2.45;;
25191;SDS011;13143;50.924;5.320;2023-09-18T08:49:20;6.93;;;2.45;;
25191;SDS011;13143;50.924;5.320;2023-09-18T08:51:49;5.38;;;2.45;;
25191;SDS011;13143;50.924;5.320;2023-09-18T08:54:20;5.25;;;2.30;;
25191;SDS011;13143;50.924;5.320;2023-09-18T08:56:52;4.57;;;2.20;;
25191;SDS011;13143;50.924;5.320;2023-09-18T08:59:19;6.32;;;2.30;;
25191;SDS011;13143;50.924;5.320;2023-09-18T09:01:49;10.40;;;2.50;;
25191;SDS011;13143;50.924;5.320;2023-09-18T09:04:15;12.05;;;2.78;;
25191;SDS011;13143;50.924;5.320;2023-09-18T09:06:41;6.15;;;2.53;;
25191;SDS011;13143;50.924;5.320;2023-09-18T09:09:07;4.57;;;2.20;;
25191;SDS011;13143;50.924;5.320;2023-09-18T09:11:33;6.63;;;2.60;;
25191;SDS011;13143;50.924;5.320;2023-09-18T09:14:09;9.93;;;3.40;;
25191;SDS011;13143;50.924;5.320;2023-09-18T09:16:50;6.15;;;2.33;;
25191;SDS011;13143;50.924;5.320;2023-09-18T09:19:17;5.93;;;2.70;;
25191;SDS011;13143;50.924;5.320;2023-09-18T09:21:43;4.88;;;2.45;;
25191;SDS011;13143;50.924;5.320;2023-09-18T09:24:11;14.15;;;2.97;;
25191;SDS011;13143;50.924;5.320;2023-09-18T09:26:40;8.45;;;2.85;;
25191;SDS011;13143;50.924;5.320;2023-09-18T09:29:17;6.20;;;2.80;;
25191;SDS011;13143;50.924;5.320;2023-09-18T09:31:45;4.78;;;2.67;;
25191;SDS011;13143;50.924;5.320;2023-09-18T09:34:12;12.32;;;3.38;;
25191;SDS011;13143;50.924;5.320;2023-09-18T09:36:52;6.72;;;3.58;;
25191;SDS011;13143;50.924;5.320;2023-09-18T09:39:22;9.20;;;3.00;;
25191;SDS011;13143;50.924;5.320;2023-09-18T09:41:53;8.15;;;3.08;;
25191;SDS011;13143;50.924;5.320;2023-09-18T09:44:19;7.88;;;3.17;;
25191;SDS011;13143;50.924;5.320;2023-09-18T09:46:49;6.13;;;3.25;;
25191;SDS011;13143;50.924;5.320;2023-09-18T09:49:18;6.13;;;2.92;;
25191;SDS011;13143;50.924;5.320;2023-09-18T09:51:48;6.47;;;2.95;;
25191;SDS011;13143;50.924;5.320;2023-09-18T09:54:14;5.97;;;3.00;;
25191;SDS011;13143;50.924;5.320;2023-09-18T09:56:59;7.13;;;2.75;;
25191;SDS011;13143;50.924;5.320;2023-09-18T09:59:28;7.78;;;3.17;;
25191;SDS011;13143;50.924;5.320;2023-09-18T10:01:55;5.05;;;2.90;;
25191;SDS011;13143;50.924;5.320;2023-09-18T10:04:23;6.45;;;2.90;;
25191;SDS011;13143;50.924;5.320;2023-09-18T10:06:55;8.52;;;2.70;;
25191;SDS011;13143;50.924;5.320;2023-09-18T10:09:23;7.20;;;3.05;;
25191;SDS011;13143;50.924;5.320;2023-09-18T10:11:54;8.40;;;3.42;;
25191;SDS011;13143;50.924;5.320;2023-09-18T10:14:39;7.18;;;3.08;;
25191;SDS011;13143;50.924;5.320;2023-09-18T10:17:25;8.77;;;2.83;;
25191;SDS011;13143;50.924;5.320;2023-09-18T10:22:42;8.27;;;2.80;;
25191;SDS011;13143;50.924;5.320;2023-09-18T10:25:20;6.05;;;3.05;;
25191;SDS011;13143;50.924;5.320;2023-09-18T10:27:48;5.15;;;2.92;;
25191;SDS011;13143;50.924;5.320;2023-09-18T10:30:19;12.60;;;3.90;;
25191;SDS011;13143;50.924;5.320;2023-09-18T10:32:50;7.82;;;2.90;;
25191;SDS011;13143;50.924;5.320;2023-09-18T10:35:16;10.45;;;3.15;;
25191;SDS011;13143;50.924;5.320;2023-09-18T10:37:45;7.53;;;3.17;;
25191;SDS011;13143;50.924;5.320;2023-09-18T10:40:13;5.75;;;3.13;;
25191;SDS011;13143;50.924;5.320;2023-09-18T10:42:39;12.00;;;3.92;;
25191;SDS011;13143;50.924;5.320;2023-09-18T10:45:11;8.50;;;2.90;;
25191;SDS011;13143;50.924;5.320;2023-09-18T10:47:41;7.30;;;3.50;;
25191;SDS011;13143;50.924;5.320;2023-09-18T10:50:10;6.55;;;2.95;;
25191;SDS011;13143;50.924;5.320;2023-09-18T10:52:38;7.18;;;3.08;;
25191;SDS011;13143;50.924;5.320;2023-09-18T10:55:12;7.50;;;2.88;;
25191;SDS011;13143;50.924;5.320;2023-09-18T10:57:55;5.20;;;2.45;;
25191;SDS011;13143;50.924;5.320;2023-09-18T11:00:26;7.55;;;3.05;;
25191;SDS011;13143;50.924;5.320;2023-09-18T11:02:56;6.40;;;2.78;;
25191;SDS011;13143;50.924;5.320;2023-09-18T11:05:45;9.23;;;3.13;;
25191;SDS011;13143;50.924;5.320;2023-09-18T11:10:59;10.00;;;2.85;;
25191;SDS011;13143;50.924;5.320;2023-09-18T11:13:35;9.52;;;3.13;;
25191;SDS011;13143;50.924;5.320;2023-09-18T11:16:33;4.25;;;2.72;;
25191;SDS011;13143;50.924;5.320;2023-09-18T11:19:16;7.78;;;2.45;;
25191;SDS011;13143;50.924;5.320;2023-09-18T11:21:42;6.38;;;2.80;;
25191;SDS011;13143;50.924;5.320;2023-09-18T11:24:20;7.68;;;3.17;;
25191;SDS011;13143;50.924;5.320;2023-09-18T11:26:47;6.88;;;2.78;;
25191;SDS011;13143;50.924;5.320;2023-09-18T11:29:17;5.60;;;2.75;;
25191;SDS011;13143;50.924;5.320;2023-09-18T11:31:51;4.97;;;2.60;;
25191;SDS011;13143;50.924;5.320;2023-09-18T11:34:23;4.07;;;2.58;;
25191;SDS011;13143;50.924;5.320;2023-09-18T11:37:19;11.50;;;3.40;;
25191;SDS011;13143;50.924;5.320;2023-09-18T11:39:50;4.75;;;2.80;;
25191;SDS011;13143;50.924;5.320;2023-09-18T11:42:19;9.20;;;2.80;;
25191;SDS011;13143;50.924;5.320;2023-09-18T11:44:53;4.28;;;2.30;;
25191;SDS011;13143;50.924;5.320;2023-09-18T11:47:24;8.23;;;3.08;;
25191;SDS011;13143;50.924;5.320;2023-09-18T11:49:59;5.93;;;2.70;;
25191;SDS011;13143;50.924;5.320;2023-09-18T11:52:28;7.43;;;2.90;;
25191;SDS011;13143;50.924;5.320;2023-09-18T11:54:56;7.28;;;2.70;;
25191;SDS011;13143;50.924;5.320;2023-09-18T11:57:23;8.98;;;2.95;;
25191;SDS011;13143;50.924;5.320;2023-09-18T11:59:50;7.32;;;2.50;;
25191;SDS011;13143;50.924;5.320;2023-09-18T12:02:29;7.88;;;2.50;;
25191;SDS011;13143;50.924;5.320;2023-09-18T12:05:04;5.82;;;2.78;;
25191;SDS011;13143;50.924;5.320;2023-09-18T12:07:34;5.35;;;2.60;;
25191;SDS011;13143;50.924;5.320;2023-09-18T12:10:03;8.07;;;2.70;;
25191;SDS011;13143;50.924;5.320;2023-09-18T12:12:30;11.95;;;2.97;;
25191;SDS011;13143;50.924;5.320;2023-09-18T12:14:56;8.68;;;2.80;;
25191;SDS011;13143;50.924;5.320;2023-09-18T12:17:22;6.13;;;2.67;;
25191;SDS011;13143;50.924;5.320;2023-09-18T12:19:54;5.70;;;2.60;;
25191;SDS011;13143;50.924;5.320;2023-09-18T12:22:24;8.60;;;2.97;;
25191;SDS011;13143;50.924;5.320;2023-09-18T12:24:54;6.22;;;2.53;;
25191;SDS011;13143;50.924;5.320;2023-09-18T12:27:36;5.43;;;3.03;;
25191;SDS011;13143;50.924;5.320;2023-09-18T12:30:03;4.13;;;2.38;;
25191;SDS011;13143;50.924;5.320;2023-09-18T12:32:30;5.35;;;2.67;;
25191;SDS011;13143;50.924;5.320;2023-09-18T12:34:57;5.82;;;2.55;;
25191;SDS011;13143;50.924;5.320;2023-09-18T12:37:23;6.78;;;2.50;;
25191;SDS011;13143;50.924;5.320;2023-09-18T12:39:50;4.20;;;2.38;;
25191;SDS011;13143;50.924;5.320;2023-09-18T12:42:19;6.22;;;2.65;;
25191;SDS011;13143;50.924;5.320;2023-09-18T12:44:48;4.72;;;2.70;;
25191;SDS011;13143;50.924;5.320;2023-09-18T12:47:15;7.82;;;2.40;;
25191;SDS011;13143;50.924;5.320;2023-09-18T12:49:41;4.78;;;2.53;;
25191;SDS011;13143;50.924;5.320;2023-09-18T12:52:07;4.97;;;2.33;;
25191;SDS011;13143;50.924;5.320;2023-09-18T12:54:40;8.68;;;2.90;;
25191;SDS011;13143;50.924;5.320;2023-09-18T12:57:07;6.32;;;2.20;;
25191;SDS011;13143;50.924;5.320;2023-09-18T12:59:36;5.70;;;2.55;;
25191;SDS011;13143;50.924;5.320;2023-09-18T13:02:06;4.18;;;1.98;;
25191;SDS011;13143;50.924;5.320;2023-09-18T13:04:32;7.53;;;2.58;;
25191;SDS011;13143;50.924;5.320;2023-09-18T13:07:11;5.53;;;2.92;;
25191;SDS011;13143;50.924;5.320;2023-09-18T13:09:39;7.63;;;2.42;;
25191;SDS011;13143;50.924;5.320;2023-09-18T13:12:05;4.55;;;2.50;;
25191;SDS011;13143;50.924;5.320;2023-09-18T13:17:25;3.58;;;2.15;;
25191;SDS011;13143;50.924;5.320;2023-09-18T13:19:52;4.95;;;2.60;;
25191;SDS011;13143;50.924;5.320;2023-09-18T13:22:26;4.60;;;2.30;;
25191;SDS011;13143;50.924;5.320;2023-09-18T13:24:55;3.97;;;2.10;;
25191;SDS011;13143;50.924;5.320;2023-09-18T13:27:22;6.07;;;2.17;;
25191;SDS011;13143;50.924;5.320;2023-09-18T13:29:48;8.23;;;2.75;;
25191;SDS011;13143;50.924;5.320;2023-09-18T13:32:14;7.32;;;2.60;;
25191;SDS011;13143;50.924;5.320;2023-09-18T13:34:40;7.03;;;2.42;;
25191;SDS011;13143;50.924;5.320;2023-09-18T13:37:06;4.75;;;2.33;;
25191;SDS011;13143;50.924;5.320;2023-09-18T13:39:32;6.13;;;2.10;;
25191;SDS011;13143;50.924;5.320;2023-09-18T13:41:57;5.97;;;2.08;;
25191;SDS011;13143;50.924;5.320;2023-09-18T13:44:23;3.25;;;1.90;;
25191;SDS011;13143;50.924;5.320;2023-09-18T13:46:49;5.38;;;2.20;;
25191;SDS011;13143;50.924;5.320;2023-09-18T13:49:15;4.72;;;2.20;;
25191;SDS011;13143;50.924;5.320;2023-09-18T13:51:41;3.65;;;2.03;;
25191;SDS011;13143;50.924;5.320;2023-09-18T13:54:06;5.95;;;2.00;;
25191;SDS011;13143;50.924;5.320;2023-09-18T13:56:32;6.80;;;2.55;;
25191;SDS011;13143;50.924;5.320;2023-09-18T13:58:58;5.93;;;2.45;;
25191;SDS011;13143;50.924;5.320;2023-09-18T14:01:24;6.30;;;2.25;;
25191;SDS011;13143;50.924;5.320;2023-09-18T14:03:53;6.05;;;2.00;;
25191;SDS011;13143;50.924;5.320;2023-09-18T14:06:19;5.93;;;2.22;;
25191;SDS011;13143;50.924;5.320;2023-09-18T14:08:45;5.68;;;2.00;;
25191;SDS011;13143;50.924;5.320;2023-09-18T14:11:11;3.50;;;2.20;;
25191;SDS011;13143;50.924;5.320;2023-09-18T14:13:37;5.30;;;2.03;;
25191;SDS011;13143;50.924;5.320;2023-09-18T14:16:03;3.20;;;2.00;;
25191;SDS011;13143;50.924;5.320;2023-09-18T14:18:29;4.30;;;1.80;;
25191;SDS011;13143;50.924;5.320;2023-09-18T14:20:55;3.70;;;2.03;;
25191;SDS011;13143;50.924;5.320;2023-09-18T14:23:21;3.30;;;1.80;;
25191;SDS011;13143;50.924;5.320;2023-09-18T14:25:46;8.20;;;2.05;;
25191;SDS011;13143;50.924;5.320;2023-09-18T14:28:12;5.45;;;1.88;;
25191;SDS011;13143;50.924;5.320;2023-09-18T14:30:38;8.25;;;2.17;;
25191;SDS011;13143;50.924;5.320;2023-09-18T14:33:04;6.55;;;2.15;;
25191;SDS011;13143;50.924;5.320;2023-09-18T14:35:30;3.15;;;1.77;;
25191;SDS011;13143;50.924;5.320;2023-09-18T14:37:56;12.15;;;2.47;;
25191;SDS011;13143;50.924;5.320;2023-09-18T14:40:21;2.65;;;2.03;;
25191;SDS011;13143;50.924;5.320;2023-09-18T14:42:47;5.68;;;1.85;;
25191;SDS011;13143;50.924;5.320;2023-09-18T14:45:13;4.53;;;2.25;;
25191;SDS011;13143;50.924;5.320;2023-09-18T14:47:39;4.47;;;1.83;;
25191;SDS011;13143;50.924;5.320;2023-09-18T14:50:05;4.32;;;2.20;;
25191;SDS011;13143;50.924;5.320;2023-09-18T14:52:31;5.03;;;2.03;;
25191;SDS011;13143;50.924;5.320;2023-09-18T14:54:57;7.15;;;2.17;;
25191;SDS011;13143;50.924;5.320;2023-09-18T14:57:25;7.00;;;2.05;;
25191;SDS011;13143;50.924;5.320;2023-09-18T14:59:52;8.13;;;2.28;;